createdAt,value
2017-12-29T00:00:49.630Z,3.8
2017-12-29T00:01:52.044Z,3.8
2017-12-29T00:02:54.448Z,3.8
2017-12-29T00:03:57.142Z,3.8
2017-12-29T00:04:59.559Z,3.8
2017-12-29T00:06:01.961Z,3.8
2017-12-29T00:07:04.672Z,3.8
2017-12-29T00:08:07.077Z,3.8
2017-12-29T00:09:09.474Z,3.8
2017-12-29T00:10:11.884Z,3.8
2017-12-29T00:11:14.291Z,3.7
2017-12-29T00:12:16.705Z,3.8
2017-12-29T00:13:19.107Z,3.8
2017-12-29T00:14:21.536Z,3.8
2017-12-29T00:15:23.936Z,3.8
2017-12-29T00:16:26.334Z,3.8
2017-12-29T00:17:29.043Z,3.8
2017-12-29T00:18:31.449Z,3.8
2017-12-29T00:19:33.867Z,3.7
2017-12-29T00:20:36.559Z,3.7
2017-12-29T00:21:39.242Z,3.8
2017-12-29T00:22:41.654Z,3.8
2017-12-29T00:23:44.074Z,3.8
2017-12-29T00:24:46.769Z,3.8
2017-12-29T00:25:49.190Z,3.8
2017-12-29T00:26:51.881Z,3.7
2017-12-29T00:27:54.289Z,3.8
2017-12-29T00:28:56.988Z,3.7
2017-12-29T00:29:59.404Z,3.7
2017-12-29T00:31:01.804Z,3.8
2017-12-29T00:32:04.219Z,3.8
2017-12-29T00:33:06.619Z,3.8
2017-12-29T00:34:09.038Z,3.8
2017-12-29T00:35:11.444Z,3.8
2017-12-29T00:36:13.857Z,3.8
2017-12-29T00:37:16.546Z,3.8
2017-12-29T00:38:18.948Z,3.8
2017-12-29T00:39:21.367Z,3.8
2017-12-29T00:40:23.762Z,3.8
2017-12-29T00:41:26.176Z,3.8
2017-12-29T00:42:28.584Z,3.8
2017-12-29T00:43:30.990Z,3.8
2017-12-29T00:44:33.400Z,3.8
2017-12-29T00:45:35.808Z,3.8
2017-12-29T00:46:38.211Z,3.8
2017-12-29T00:47:40.632Z,3.8
2017-12-29T00:48:43.043Z,3.8
2017-12-29T00:49:45.731Z,3.8
2017-12-29T00:50:48.145Z,3.8
2017-12-29T00:51:50.563Z,3.8
2017-12-29T00:52:52.974Z,3.8
2017-12-29T00:53:55.384Z,3.8
2017-12-29T00:54:57.792Z,3.8
2017-12-29T00:56:00.501Z,3.8
2017-12-29T00:57:02.918Z,3.8
2017-12-29T00:58:05.319Z,3.8
2017-12-29T00:59:07.730Z,3.8
2017-12-29T01:00:10.133Z,3.8
2017-12-29T01:01:12.546Z,3.8
2017-12-29T01:02:14.950Z,3.8
2017-12-29T01:03:17.367Z,3.8
2017-12-29T01:04:19.775Z,3.8
2017-12-29T01:05:22.189Z,3.8
2017-12-29T01:06:24.604Z,3.8
2017-12-29T01:07:27.020Z,3.8
2017-12-29T01:08:29.424Z,3.8
2017-12-29T01:09:31.828Z,3.8
2017-12-29T01:10:34.244Z,3.8
2017-12-29T01:11:36.641Z,3.8
2017-12-29T01:12:39.345Z,3.8
2017-12-29T01:13:42.045Z,3.8
2017-12-29T01:14:44.452Z,3.8
2017-12-29T01:15:46.863Z,3.8
2017-12-29T01:16:49.277Z,3.8
2017-12-29T01:17:51.963Z,3.8
2017-12-29T01:18:54.377Z,3.8
2017-12-29T01:19:56.793Z,3.8
2017-12-29T01:20:59.195Z,3.8
2017-12-29T01:22:01.610Z,3.8
2017-12-29T01:23:04.302Z,3.8
2017-12-29T01:24:06.708Z,3.8
2017-12-29T01:25:09.132Z,3.8
2017-12-29T01:26:11.535Z,3.8
2017-12-29T01:27:13.940Z,3.8
2017-12-29T01:28:16.353Z,3.8
2017-12-29T01:29:18.752Z,3.8
2017-12-29T01:30:21.169Z,3.8
2017-12-29T01:31:23.584Z,3.8
2017-12-29T01:32:25.976Z,3.8
2017-12-29T01:33:28.392Z,3.8
2017-12-29T01:34:31.090Z,3.8
2017-12-29T01:35:33.505Z,3.8
2017-12-29T01:36:36.200Z,3.8
2017-12-29T01:37:38.611Z,3.8
2017-12-29T01:38:41.013Z,3.8
2017-12-29T01:39:43.418Z,3.8
2017-12-29T01:40:45.823Z,3.8
2017-12-29T01:41:48.231Z,3.8
2017-12-29T01:42:50.643Z,3.8
2017-12-29T01:43:53.057Z,3.8
2017-12-29T01:44:55.457Z,3.8
2017-12-29T01:45:58.175Z,3.9
2017-12-29T01:47:00.578Z,3.9
2017-12-29T01:48:02.994Z,3.8
2017-12-29T01:49:05.404Z,3.8
2017-12-29T01:50:08.402Z,3.8
2017-12-29T01:51:10.859Z,3.8
2017-12-29T01:52:13.273Z,3.8
2017-12-29T01:53:15.677Z,3.8
2017-12-29T01:54:18.086Z,3.9
2017-12-29T01:55:20.778Z,3.8
2017-12-29T01:56:23.184Z,3.9
2017-12-29T01:57:25.588Z,3.8
2017-12-29T01:58:28.330Z,3.8
2017-12-29T01:59:30.740Z,3.8
2017-12-29T02:00:33.149Z,3.8
2017-12-29T02:01:35.557Z,3.8
2017-12-29T02:02:38.258Z,3.8
2017-12-29T02:03:40.664Z,3.8
2017-12-29T02:04:43.078Z,3.8
2017-12-29T02:05:45.479Z,3.8
2017-12-29T02:06:48.449Z,3.8
2017-12-29T02:07:50.857Z,3.8
2017-12-29T02:08:53.260Z,3.8
2017-12-29T02:09:55.666Z,3.8
2017-12-29T02:10:58.090Z,3.8
2017-12-29T02:12:00.504Z,3.8
2017-12-29T02:13:02.907Z,3.8
2017-12-29T02:14:05.612Z,3.8
2017-12-29T02:15:08.026Z,3.8
2017-12-29T02:16:10.434Z,3.8
2017-12-29T02:17:12.848Z,3.8
2017-12-29T02:18:15.247Z,3.8
2017-12-29T02:19:17.655Z,3.8
2017-12-29T02:20:20.080Z,3.8
2017-12-29T02:21:22.486Z,3.8
2017-12-29T02:22:24.898Z,3.8
2017-12-29T02:23:27.303Z,3.8
2017-12-29T02:24:29.711Z,3.8
2017-12-29T02:25:32.114Z,3.8
2017-12-29T02:26:34.538Z,3.8
2017-12-29T02:27:37.229Z,3.8
2017-12-29T02:28:39.639Z,3.8
2017-12-29T02:29:42.062Z,3.8
2017-12-29T02:30:44.460Z,3.8
2017-12-29T02:31:46.877Z,3.8
2017-12-29T02:32:49.277Z,3.8
2017-12-29T02:33:51.677Z,3.8
2017-12-29T02:34:54.088Z,3.8
2017-12-29T02:35:56.789Z,3.8
2017-12-29T02:36:59.198Z,3.8
2017-12-29T02:38:01.612Z,3.8
2017-12-29T02:39:04.028Z,3.8
2017-12-29T02:40:06.443Z,3.8
2017-12-29T02:41:08.846Z,3.8
2017-12-29T02:42:11.256Z,3.8
2017-12-29T02:43:13.669Z,3.8
2017-12-29T02:44:16.079Z,3.8
2017-12-29T02:45:18.489Z,3.8
2017-12-29T02:46:20.889Z,3.8
2017-12-29T02:47:23.583Z,3.8
2017-12-29T02:48:25.994Z,3.8
2017-12-29T02:49:28.419Z,3.8
2017-12-29T02:50:30.830Z,3.8
2017-12-29T02:51:33.238Z,3.8
2017-12-29T02:52:35.648Z,3.8
2017-12-29T02:53:38.066Z,3.7
2017-12-29T02:54:40.472Z,3.7
2017-12-29T02:55:42.875Z,3.7
2017-12-29T02:56:45.291Z,3.7
2017-12-29T02:57:47.706Z,3.8
2017-12-29T02:58:50.122Z,3.7
2017-12-29T02:59:52.536Z,3.7
2017-12-29T03:00:54.938Z,3.7
2017-12-29T03:01:57.620Z,3.7
2017-12-29T03:03:00.039Z,3.7
2017-12-29T03:04:02.451Z,3.7
2017-12-29T03:05:04.853Z,3.7
2017-12-29T03:06:07.271Z,3.7
2017-12-29T03:07:09.681Z,3.7
2017-12-29T03:08:12.085Z,3.7
2017-12-29T03:09:14.501Z,3.7
2017-12-29T03:10:16.925Z,3.7
2017-12-29T03:11:19.334Z,3.7
2017-12-29T03:12:21.746Z,3.7
2017-12-29T03:13:24.152Z,3.7
2017-12-29T03:14:26.571Z,3.7
2017-12-29T03:15:29.551Z,3.7
2017-12-29T03:16:32.259Z,3.7
2017-12-29T03:17:34.933Z,3.7
2017-12-29T03:18:37.352Z,3.7
2017-12-29T03:19:39.769Z,3.7
2017-12-29T03:20:42.177Z,3.7
2017-12-29T03:21:44.588Z,3.7
2017-12-29T03:22:47.044Z,3.7
2017-12-29T03:23:49.409Z,3.7
2017-12-29T03:24:52.113Z,3.7
2017-12-29T03:25:54.528Z,3.7
2017-12-29T03:26:56.929Z,3.7
2017-12-29T03:27:59.626Z,3.7
2017-12-29T03:29:02.343Z,3.7
2017-12-29T03:30:04.745Z,3.7
2017-12-29T03:31:07.155Z,3.7
2017-12-29T03:32:09.568Z,3.7
2017-12-29T03:33:11.977Z,3.8
2017-12-29T03:34:14.691Z,3.7
2017-12-29T03:35:17.392Z,3.8
2017-12-29T03:36:19.791Z,3.7
2017-12-29T03:37:22.198Z,3.7
2017-12-29T03:38:24.627Z,3.7
2017-12-29T03:39:27.321Z,3.7
2017-12-29T03:40:29.726Z,3.7
2017-12-29T03:41:32.143Z,3.7
2017-12-29T03:42:34.550Z,3.7
2017-12-29T03:43:36.966Z,3.7
2017-12-29T03:44:39.384Z,3.7
2017-12-29T03:45:41.779Z,3.7
2017-12-29T03:46:44.762Z,3.7
2017-12-29T03:47:47.184Z,3.7
2017-12-29T03:48:49.873Z,3.7
2017-12-29T03:49:52.564Z,3.7
2017-12-29T03:50:54.976Z,3.7
2017-12-29T03:51:57.378Z,3.7
2017-12-29T03:52:59.800Z,3.7
2017-12-29T03:54:02.212Z,3.7
2017-12-29T03:55:04.624Z,3.7
2017-12-29T03:56:07.027Z,3.7
2017-12-29T03:57:09.434Z,3.7
2017-12-29T03:58:11.844Z,3.7
2017-12-29T03:59:14.253Z,3.7
2017-12-29T04:00:16.656Z,3.7
2017-12-29T04:01:19.065Z,3.7
2017-12-29T04:02:21.765Z,3.6
2017-12-29T04:03:24.178Z,3.7
2017-12-29T04:04:26.579Z,3.7
2017-12-29T04:05:28.994Z,3.7
2017-12-29T04:06:31.401Z,3.7
2017-12-29T04:07:34.089Z,3.7
2017-12-29T04:08:36.494Z,3.7
2017-12-29T04:09:38.916Z,3.7
2017-12-29T04:10:41.320Z,3.7
2017-12-29T04:11:43.728Z,3.7
2017-12-29T04:12:46.141Z,3.7
2017-12-29T04:13:48.555Z,3.7
2017-12-29T04:14:50.961Z,3.7
2017-12-29T04:15:53.384Z,3.7
2017-12-29T04:16:55.775Z,3.7
2017-12-29T04:17:58.188Z,3.7
2017-12-29T04:19:00.598Z,3.7
2017-12-29T04:20:03.009Z,3.7
2017-12-29T04:21:05.416Z,3.7
2017-12-29T04:22:07.828Z,3.7
2017-12-29T04:23:10.242Z,3.7
2017-12-29T04:24:12.660Z,3.7
2017-12-29T04:25:15.060Z,3.7
2017-12-29T04:26:17.464Z,3.7
2017-12-29T04:27:19.868Z,3.7
2017-12-29T04:28:22.569Z,3.8
2017-12-29T04:29:25.280Z,3.8
2017-12-29T04:30:27.689Z,3.8
2017-12-29T04:31:30.376Z,3.8
2017-12-29T04:32:32.794Z,3.8
2017-12-29T04:33:35.206Z,3.8
2017-12-29T04:34:37.615Z,3.8
2017-12-29T04:35:40.024Z,3.8
2017-12-29T04:36:42.428Z,3.8
2017-12-29T04:37:44.844Z,3.8
2017-12-29T04:38:47.249Z,3.8
2017-12-29T04:39:49.657Z,3.8
2017-12-29T04:40:52.071Z,3.8
2017-12-29T04:41:54.488Z,3.8
2017-12-29T04:42:56.891Z,3.8
2017-12-29T04:43:59.312Z,3.8
2017-12-29T04:45:01.998Z,3.8
2017-12-29T04:46:04.403Z,3.8
2017-12-29T04:47:06.810Z,3.8
2017-12-29T04:48:09.221Z,3.8
2017-12-29T04:49:11.623Z,3.8
2017-12-29T04:50:14.046Z,3.8
2017-12-29T04:51:16.445Z,3.8
2017-12-29T04:52:18.854Z,3.8
2017-12-29T04:53:21.258Z,3.8
2017-12-29T04:54:23.671Z,3.8
2017-12-29T04:55:26.361Z,3.8
2017-12-29T04:56:28.769Z,3.8
2017-12-29T04:57:31.162Z,3.8
2017-12-29T04:58:33.587Z,3.8
2017-12-29T04:59:35.992Z,3.8
2017-12-29T05:00:38.406Z,3.8
2017-12-29T05:01:40.820Z,3.8
2017-12-29T05:02:43.228Z,3.8
2017-12-29T05:03:45.640Z,3.8
2017-12-29T05:04:48.334Z,3.8
2017-12-29T05:05:50.736Z,3.8
2017-12-29T05:06:53.148Z,3.8
2017-12-29T05:07:55.827Z,3.8
2017-12-29T05:08:58.247Z,3.8
2017-12-29T05:10:01.231Z,3.8
2017-12-29T05:11:03.638Z,3.8
2017-12-29T05:12:06.048Z,3.8
2017-12-29T05:13:08.457Z,3.8
2017-12-29T05:14:10.865Z,3.8
2017-12-29T05:15:13.273Z,3.8
2017-12-29T05:16:15.670Z,3.8
2017-12-29T05:17:18.083Z,3.8
2017-12-29T05:18:20.498Z,3.8
2017-12-29T05:19:22.908Z,3.8
2017-12-29T05:20:25.312Z,3.8
2017-12-29T05:21:27.720Z,3.8
2017-12-29T05:22:30.118Z,3.8
2017-12-29T05:23:32.540Z,3.8
2017-12-29T05:24:34.949Z,3.8
2017-12-29T05:25:37.358Z,3.7
2017-12-29T05:26:39.765Z,3.8
2017-12-29T05:27:42.177Z,3.8
2017-12-29T05:28:44.591Z,3.8
2017-12-29T05:29:47.005Z,3.8
2017-12-29T05:30:49.406Z,3.8
2017-12-29T05:31:51.819Z,3.8
2017-12-29T05:32:54.235Z,3.8
2017-12-29T05:33:56.638Z,3.8
2017-12-29T05:34:59.040Z,3.8
2017-12-29T05:36:01.457Z,3.8
2017-12-29T05:37:03.866Z,3.8
2017-12-29T05:38:06.553Z,3.7
2017-12-29T05:39:08.970Z,3.7
2017-12-29T05:40:11.374Z,3.7
2017-12-29T05:41:13.781Z,3.7
2017-12-29T05:42:16.202Z,3.7
2017-12-29T05:43:18.600Z,3.7
2017-12-29T05:44:21.010Z,3.7
2017-12-29T05:45:23.419Z,3.7
2017-12-29T05:46:25.827Z,3.7
2017-12-29T05:47:28.236Z,3.6
2017-12-29T05:48:30.669Z,3.6
2017-12-29T05:49:33.060Z,3.6
2017-12-29T05:50:35.750Z,3.7
2017-12-29T05:51:38.157Z,3.6
2017-12-29T05:52:40.566Z,3.6
2017-12-29T05:53:43.275Z,3.6
2017-12-29T05:54:45.681Z,3.6
2017-12-29T05:55:48.091Z,3.6
2017-12-29T05:56:50.511Z,3.6
2017-12-29T05:57:52.915Z,3.6
2017-12-29T05:58:55.323Z,3.6
2017-12-29T05:59:57.734Z,3.6
2017-12-29T06:01:00.147Z,3.6
2017-12-29T06:02:02.827Z,3.6
2017-12-29T06:03:05.239Z,3.6
2017-12-29T06:04:07.916Z,3.6
2017-12-29T06:05:10.333Z,3.6
2017-12-29T06:06:12.756Z,3.6
2017-12-29T06:07:15.444Z,3.6
2017-12-29T06:08:17.849Z,3.6
2017-12-29T06:09:20.546Z,3.6
2017-12-29T06:10:22.954Z,3.6
2017-12-29T06:11:25.360Z,3.6
2017-12-29T06:12:27.768Z,3.6
2017-12-29T06:13:30.176Z,3.6
2017-12-29T06:14:32.594Z,3.6
2017-12-29T06:15:35.006Z,3.6
2017-12-29T06:16:37.723Z,3.6
2017-12-29T06:17:40.137Z,3.6
2017-12-29T06:18:42.833Z,3.6
2017-12-29T06:19:45.240Z,3.6
2017-12-29T06:20:47.662Z,3.6
2017-12-29T06:21:50.353Z,3.6
2017-12-29T06:22:52.761Z,3.6
2017-12-29T06:23:55.168Z,3.6
2017-12-29T06:24:57.595Z,3.6
2017-12-29T06:26:00.275Z,3.6
2017-12-29T06:27:02.972Z,3.6
2017-12-29T06:28:05.666Z,3.6
2017-12-29T06:29:08.069Z,3.6
2017-12-29T06:30:10.496Z,3.6
2017-12-29T06:31:12.900Z,3.6
2017-12-29T06:32:15.307Z,3.6
2017-12-29T06:33:17.719Z,3.6
2017-12-29T06:34:20.132Z,3.6
2017-12-29T06:35:22.545Z,3.6
2017-12-29T06:36:25.237Z,3.6
2017-12-29T06:37:27.639Z,3.6
2017-12-29T06:38:30.048Z,3.6
2017-12-29T06:39:32.443Z,3.6
2017-12-29T06:40:34.854Z,3.6
2017-12-29T06:41:37.270Z,3.6
2017-12-29T06:42:39.681Z,3.6
2017-12-29T06:43:42.089Z,3.6
2017-12-29T06:44:44.502Z,3.6
2017-12-29T06:45:46.908Z,3.5
2017-12-29T06:46:49.322Z,3.6
2017-12-29T06:47:51.725Z,3.6
2017-12-29T06:48:54.132Z,3.6
2017-12-29T06:49:56.551Z,3.5
2017-12-29T06:50:58.961Z,3.5
2017-12-29T06:52:01.377Z,3.5
2017-12-29T06:53:04.072Z,3.6
2017-12-29T06:54:06.470Z,3.5
2017-12-29T06:55:09.374Z,3.5
2017-12-29T06:56:11.789Z,3.5
2017-12-29T06:57:14.196Z,3.5
2017-12-29T06:58:16.603Z,3.5
2017-12-29T06:59:19.018Z,3.5
2017-12-29T07:00:21.427Z,3.5
2017-12-29T07:01:23.842Z,3.6
2017-12-29T07:02:26.250Z,3.6
2017-12-29T07:03:28.716Z,3.6
2017-12-29T07:04:31.121Z,3.6
2017-12-29T07:05:33.795Z,3.6
2017-12-29T07:06:36.498Z,3.5
2017-12-29T07:07:38.911Z,3.5
2017-12-29T07:08:41.316Z,3.5
2017-12-29T07:09:43.733Z,3.5
2017-12-29T07:10:46.141Z,3.5
2017-12-29T07:11:48.565Z,3.5
2017-12-29T07:12:50.961Z,3.6
2017-12-29T07:13:53.380Z,3.5
2017-12-29T07:14:55.798Z,3.6
2017-12-29T07:15:58.201Z,3.5
2017-12-29T07:17:00.891Z,3.6
2017-12-29T07:18:03.302Z,3.6
2017-12-29T07:19:05.997Z,3.6
2017-12-29T07:20:08.733Z,3.6
2017-12-29T07:21:11.414Z,3.6
2017-12-29T07:22:13.823Z,3.6
2017-12-29T07:23:16.227Z,3.6
2017-12-29T07:24:18.648Z,3.6
2017-12-29T07:25:21.053Z,3.6
2017-12-29T07:26:23.463Z,3.6
2017-12-29T07:27:25.857Z,3.6
2017-12-29T07:28:28.277Z,3.7
2017-12-29T07:29:30.694Z,3.6
2017-12-29T07:30:33.112Z,3.6
2017-12-29T07:31:35.822Z,3.6
2017-12-29T07:32:38.226Z,3.5
2017-12-29T07:33:40.639Z,3.5
2017-12-29T07:34:43.051Z,3.5
2017-12-29T07:35:45.458Z,3.5
2017-12-29T07:36:48.517Z,3.5
2017-12-29T07:37:50.884Z,3.5
2017-12-29T07:38:53.298Z,3.5
2017-12-29T07:39:55.721Z,3.5
2017-12-29T07:40:58.418Z,3.5
2017-12-29T07:42:01.115Z,3.5
2017-12-29T07:43:03.523Z,3.6
2017-12-29T07:44:05.956Z,3.6
2017-12-29T07:45:08.356Z,3.6
2017-12-29T07:46:10.765Z,3.6
2017-12-29T07:47:13.173Z,3.6
2017-12-29T07:48:15.589Z,3.6
2017-12-29T07:49:18.293Z,3.5
2017-12-29T07:50:20.704Z,3.5
2017-12-29T07:51:23.121Z,3.5
2017-12-29T07:52:25.527Z,3.5
2017-12-29T07:53:27.943Z,3.5
2017-12-29T07:54:30.363Z,3.5
2017-12-29T07:55:32.762Z,3.4
2017-12-29T07:56:35.180Z,3.5
2017-12-29T07:57:37.590Z,3.5
2017-12-29T07:58:40.002Z,3.4
2017-12-29T07:59:42.412Z,3.4
2017-12-29T08:00:44.826Z,3.4
2017-12-29T08:01:47.227Z,3.4
2017-12-29T08:02:49.648Z,3.5
2017-12-29T08:03:52.056Z,3.5
2017-12-29T08:04:54.462Z,3.4
2017-12-29T08:05:57.160Z,3.4
2017-12-29T08:06:59.568Z,3.5
2017-12-29T08:08:01.969Z,3.4
2017-12-29T08:09:04.391Z,3.5
2017-12-29T08:10:06.797Z,3.5
2017-12-29T08:11:09.208Z,3.5
2017-12-29T08:12:11.615Z,3.5
2017-12-29T08:13:14.023Z,3.5
2017-12-29T08:14:16.433Z,3.5
2017-12-29T08:15:18.844Z,3.6
2017-12-29T08:16:21.249Z,3.5
2017-12-29T08:17:23.663Z,3.5
2017-12-29T08:18:26.087Z,3.6
2017-12-29T08:19:28.483Z,3.6
2017-12-29T08:20:31.474Z,3.5
2017-12-29T08:21:33.891Z,3.5
2017-12-29T08:22:36.297Z,3.5
2017-12-29T08:23:38.711Z,3.5
2017-12-29T08:24:41.126Z,3.5
2017-12-29T08:25:43.540Z,3.6
2017-12-29T08:26:45.958Z,3.6
2017-12-29T08:27:48.646Z,3.6
2017-12-29T08:28:51.052Z,3.7
2017-12-29T08:29:53.745Z,3.8
2017-12-29T08:30:56.157Z,3.7
2017-12-29T08:31:58.563Z,3.7
2017-12-29T08:33:00.973Z,3.7
2017-12-29T08:34:03.449Z,3.7
2017-12-29T08:35:05.825Z,3.6
2017-12-29T08:36:08.868Z,3.6
2017-12-29T08:37:11.566Z,3.7
2017-12-29T08:38:14.267Z,3.7
2017-12-29T08:39:16.967Z,3.7
2017-12-29T08:40:19.375Z,3.7
2017-12-29T08:41:22.362Z,3.7
2017-12-29T08:42:25.052Z,3.7
2017-12-29T08:43:27.480Z,3.7
2017-12-29T08:44:30.167Z,3.7
2017-12-29T08:45:32.579Z,3.7
2017-12-29T08:46:34.990Z,3.7
2017-12-29T08:47:37.405Z,3.7
2017-12-29T08:48:39.809Z,3.7
2017-12-29T08:49:42.597Z,3.7
2017-12-29T08:50:45.287Z,3.7
2017-12-29T08:51:47.704Z,3.7
2017-12-29T08:52:50.412Z,3.7
2017-12-29T08:53:52.819Z,3.7
2017-12-29T08:54:55.229Z,3.8
2017-12-29T08:55:57.646Z,3.7
2017-12-29T08:57:00.069Z,3.7
2017-12-29T08:58:02.481Z,3.7
2017-12-29T08:59:04.927Z,3.7
2017-12-29T09:00:07.347Z,3.7
2017-12-29T09:01:09.764Z,3.7
2017-12-29T09:02:12.187Z,3.7
2017-12-29T09:03:14.597Z,3.7
2017-12-29T09:04:17.005Z,3.7
2017-12-29T09:05:19.418Z,3.7
2017-12-29T09:06:22.121Z,3.7
2017-12-29T09:07:24.524Z,3.7
2017-12-29T09:08:26.939Z,3.7
2017-12-29T09:09:29.356Z,3.6
2017-12-29T09:10:31.761Z,3.7
2017-12-29T09:11:34.169Z,3.7
2017-12-29T09:12:36.585Z,3.7
2017-12-29T09:13:38.990Z,3.7
2017-12-29T09:14:41.411Z,3.7
2017-12-29T09:15:43.824Z,3.8
2017-12-29T09:16:46.221Z,3.7
2017-12-29T09:17:48.648Z,3.7
2017-12-29T09:18:51.329Z,3.7
2017-12-29T09:19:53.750Z,3.7
2017-12-29T09:21:15.356Z,3.7
2017-12-29T09:22:17.758Z,3.8
2017-12-29T09:23:20.449Z,3.8
2017-12-29T09:24:22.871Z,3.7
2017-12-29T09:25:25.277Z,3.8
2017-12-29T09:26:27.697Z,3.8
2017-12-29T09:27:30.114Z,3.8
2017-12-29T09:28:32.525Z,3.8
2017-12-29T09:29:34.928Z,3.8
2017-12-29T09:30:37.347Z,3.8
2017-12-29T09:31:39.761Z,3.8
2017-12-29T09:32:42.178Z,3.8
2017-12-29T09:33:44.598Z,3.8
2017-12-29T09:34:47.010Z,3.8
2017-12-29T09:35:49.721Z,3.8
2017-12-29T09:36:52.132Z,3.7
2017-12-29T09:37:54.823Z,3.8
2017-12-29T09:38:57.238Z,3.8
2017-12-29T09:39:59.929Z,3.8
2017-12-29T09:41:02.339Z,3.7
2017-12-29T09:42:04.756Z,3.8
2017-12-29T09:43:07.148Z,3.7
2017-12-29T09:44:09.566Z,3.8
2017-12-29T09:45:12.262Z,3.8
2017-12-29T09:46:14.672Z,3.7
2017-12-29T09:47:17.075Z,3.7
2017-12-29T09:48:19.488Z,3.7
2017-12-29T09:49:22.459Z,3.7
2017-12-29T09:50:24.881Z,3.8
2017-12-29T09:51:27.289Z,3.7
2017-12-29T09:52:29.699Z,3.7
2017-12-29T09:53:32.390Z,3.7
2017-12-29T09:54:34.799Z,3.7
2017-12-29T09:55:40.133Z,3.7
2017-12-29T09:56:44.691Z,3.7
2017-12-29T09:57:47.570Z,3.7
2017-12-29T09:58:51.196Z,3.7
2017-12-29T09:59:54.850Z,3.7
2017-12-29T10:00:57.256Z,3.7
2017-12-29T10:01:59.664Z,3.7
2017-12-29T10:03:02.086Z,3.7
2017-12-29T10:04:04.513Z,3.7
2017-12-29T10:05:06.920Z,3.7
2017-12-29T10:06:09.330Z,3.7
2017-12-29T10:07:11.746Z,3.7
2017-12-29T10:08:14.151Z,3.7
2017-12-29T10:09:16.552Z,3.7
2017-12-29T10:10:18.969Z,3.8
2017-12-29T10:11:21.366Z,3.8
2017-12-29T10:12:23.773Z,3.8
2017-12-29T10:13:26.184Z,3.8
2017-12-29T10:14:28.594Z,3.8
2017-12-29T10:15:31.008Z,3.9
2017-12-29T10:16:33.432Z,3.8
2017-12-29T10:17:35.840Z,3.8
2017-12-29T10:18:38.255Z,3.9
2017-12-29T10:19:40.676Z,3.9
2017-12-29T10:20:43.082Z,3.9
2017-12-29T10:21:45.508Z,3.9
2017-12-29T10:22:47.916Z,3.9
2017-12-29T10:23:50.309Z,3.9
2017-12-29T10:24:52.727Z,3.9
2017-12-29T10:25:55.157Z,3.9
2017-12-29T10:26:57.538Z,3.9
2017-12-29T10:27:59.949Z,3.9
2017-12-29T10:29:53.957Z,3.9
2017-12-29T10:30:56.365Z,4
2017-12-29T10:31:58.828Z,4
2017-12-29T10:33:01.250Z,4
2017-12-29T10:34:03.966Z,4
2017-12-29T10:35:06.380Z,4
2017-12-29T10:36:08.794Z,3.9
2017-12-29T10:37:11.409Z,3.8
2017-12-29T10:38:14.102Z,3.9
2017-12-29T10:39:16.503Z,3.9
2017-12-29T10:40:18.918Z,3.9
2017-12-29T10:41:21.319Z,3.9
2017-12-29T10:42:24.028Z,3.9
2017-12-29T10:43:26.722Z,3.9
2017-12-29T10:44:29.139Z,3.8
2017-12-29T10:45:31.545Z,3.8
2017-12-29T10:46:33.961Z,3.8
2017-12-29T10:47:36.678Z,3.8
2017-12-29T10:48:39.095Z,3.8
2017-12-29T10:49:41.790Z,3.8
2017-12-29T10:50:44.208Z,3.8
2017-12-29T10:51:46.611Z,3.8
2017-12-29T10:52:49.032Z,3.9
2017-12-29T10:53:51.435Z,3.9
2017-12-29T10:54:53.837Z,3.8
2017-12-29T10:55:56.252Z,3.9
2017-12-29T10:56:58.655Z,3.8
2017-12-29T10:58:01.072Z,3.8
2017-12-29T10:59:03.487Z,3.8
2017-12-29T11:00:06.158Z,3.8
2017-12-29T11:01:08.575Z,3.8
2017-12-29T11:02:10.994Z,3.9
2017-12-29T11:03:13.411Z,3.9
2017-12-29T11:04:15.814Z,3.9
2017-12-29T11:05:18.242Z,3.9
2017-12-29T11:06:20.646Z,4
2017-12-29T11:07:23.049Z,4.2
2017-12-29T11:08:25.464Z,4.3
2017-12-29T11:09:27.874Z,4.3
2017-12-29T11:10:30.290Z,4.3
2017-12-29T11:11:32.702Z,4.3
2017-12-29T11:12:35.110Z,4.3
2017-12-29T11:13:37.532Z,4.4
2017-12-29T11:14:39.959Z,4.4
2017-12-29T11:15:42.656Z,4.4
2017-12-29T11:16:45.061Z,4.2
2017-12-29T11:17:47.479Z,4.2
2017-12-29T11:18:49.889Z,4.3
2017-12-29T11:19:52.294Z,4.4
2017-12-29T11:20:54.708Z,4.2
2017-12-29T11:21:57.116Z,4.2
2017-12-29T11:22:59.524Z,4.2
2017-12-29T11:24:01.944Z,4.2
2017-12-29T11:25:04.352Z,4.2
2017-12-29T11:26:06.776Z,4.3
2017-12-29T11:27:09.178Z,4.2
2017-12-29T11:28:11.600Z,4.1
2017-12-29T11:29:14.000Z,4.1
2017-12-29T11:30:16.416Z,4.2
2017-12-29T11:31:18.879Z,4.2
2017-12-29T11:32:21.226Z,4.2
2017-12-29T11:33:23.645Z,4.2
2017-12-29T11:34:26.044Z,4.2
2017-12-29T11:35:28.455Z,4.2
2017-12-29T11:36:30.863Z,4.1
2017-12-29T11:37:33.278Z,4.1
2017-12-29T11:38:35.689Z,4
2017-12-29T11:39:38.109Z,4
2017-12-29T11:40:40.521Z,4
2017-12-29T11:41:42.939Z,4.1
2017-12-29T11:42:45.357Z,4.1
2017-12-29T11:43:47.766Z,4
2017-12-29T11:44:50.172Z,4
2017-12-29T11:45:52.869Z,4
2017-12-29T11:46:55.285Z,4.1
2017-12-29T11:47:57.983Z,4.1
2017-12-29T11:49:00.670Z,4.1
2017-12-29T11:50:03.083Z,4
2017-12-29T11:51:05.488Z,4.1
2017-12-29T11:52:07.907Z,4.1
2017-12-29T11:53:10.314Z,4.1
2017-12-29T11:54:13.018Z,4.1
2017-12-29T11:55:15.413Z,4
2017-12-29T11:56:17.840Z,4
2017-12-29T11:57:20.544Z,4.1
2017-12-29T11:58:22.954Z,4.1
2017-12-29T11:59:25.364Z,4
2017-12-29T12:00:27.770Z,3.9
2017-12-29T12:01:30.466Z,3.9
2017-12-29T12:02:32.876Z,3.9
2017-12-29T12:03:35.282Z,3.9
2017-12-29T12:04:37.990Z,3.9
2017-12-29T12:05:40.398Z,4
2017-12-29T12:06:42.794Z,4
2017-12-29T12:07:45.497Z,3.9
2017-12-29T12:08:47.916Z,4
2017-12-29T12:09:50.333Z,4
2017-12-29T12:10:52.742Z,4
2017-12-29T12:11:55.153Z,4
2017-12-29T12:12:57.559Z,4
2017-12-29T12:13:59.982Z,4
2017-12-29T12:15:02.395Z,4
2017-12-29T12:16:04.799Z,4
2017-12-29T12:17:07.213Z,4.1
2017-12-29T12:18:09.624Z,4.1
2017-12-29T12:19:12.047Z,4
2017-12-29T12:20:14.453Z,4
2017-12-29T12:21:16.855Z,4
2017-12-29T12:22:19.559Z,3.9
2017-12-29T12:23:21.972Z,4
2017-12-29T12:24:24.398Z,3.9
2017-12-29T12:25:26.804Z,3.9
2017-12-29T12:26:29.211Z,3.9
2017-12-29T12:27:31.619Z,3.9
2017-12-29T12:28:34.329Z,3.9
2017-12-29T12:29:36.735Z,3.9
2017-12-29T12:30:39.135Z,4
2017-12-29T12:31:41.547Z,3.9
2017-12-29T12:32:43.965Z,4
2017-12-29T12:33:46.380Z,4
2017-12-29T12:34:48.796Z,4
2017-12-29T12:35:51.486Z,4
2017-12-29T12:36:53.898Z,4.1
2017-12-29T12:37:56.305Z,4.1
2017-12-29T12:38:58.724Z,4.2
2017-12-29T12:40:01.127Z,4.2
2017-12-29T12:41:03.545Z,4.2
2017-12-29T12:42:05.950Z,4.2
2017-12-29T12:43:08.362Z,4.1
2017-12-29T12:44:10.780Z,4.2
2017-12-29T12:45:13.208Z,4.2
2017-12-29T12:46:15.605Z,4.2
2017-12-29T12:47:18.023Z,4.3
2017-12-29T12:48:20.429Z,4.3
2017-12-29T12:49:22.837Z,4.4
2017-12-29T12:50:25.249Z,4.4
2017-12-29T12:51:27.657Z,4.5
2017-12-29T12:52:30.067Z,4.5
2017-12-29T12:53:32.771Z,4.4
2017-12-29T12:54:35.172Z,4.4
2017-12-29T12:55:37.591Z,4.4
2017-12-29T12:56:40.283Z,4.3
2017-12-29T12:57:42.697Z,4.3
2017-12-29T12:58:45.397Z,4.3
2017-12-29T12:59:47.803Z,4.3
2017-12-29T13:00:50.214Z,4.2
2017-12-29T13:01:52.626Z,4.2
2017-12-29T13:02:55.035Z,4.2
2017-12-29T13:03:57.467Z,4.2
2017-12-29T13:04:59.870Z,4.1
2017-12-29T13:06:02.568Z,4.1
2017-12-29T13:07:04.977Z,4.1
2017-12-29T13:08:07.393Z,4
2017-12-29T13:09:10.086Z,4
2017-12-29T13:10:12.495Z,3.9
2017-12-29T13:11:14.902Z,3.9
2017-12-29T13:12:17.324Z,3.9
2017-12-29T13:13:19.739Z,3.9
2017-12-29T13:14:22.448Z,3.8
2017-12-29T13:15:24.859Z,3.9
2017-12-29T13:16:27.265Z,3.9
2017-12-29T13:17:29.676Z,4
2017-12-29T13:18:32.662Z,4
2017-12-29T13:19:35.357Z,3.9
2017-12-29T13:20:37.773Z,3.8
2017-12-29T13:21:40.190Z,3.8
2017-12-29T13:22:42.612Z,3.8
2017-12-29T13:23:45.022Z,3.9
2017-12-29T13:24:47.713Z,3.9
2017-12-29T13:25:50.116Z,3.9
2017-12-29T13:26:52.537Z,4
2017-12-29T13:27:54.958Z,3.9
2017-12-29T13:28:57.657Z,3.8
2017-12-29T13:30:00.354Z,3.9
2017-12-29T13:31:02.773Z,3.9
2017-12-29T13:32:05.184Z,3.8
2017-12-29T13:33:07.595Z,3.8
2017-12-29T13:34:10.018Z,3.8
2017-12-29T13:35:12.703Z,3.9
2017-12-29T13:36:15.113Z,3.9
2017-12-29T13:37:17.535Z,4
2017-12-29T13:38:19.941Z,4
2017-12-29T13:39:22.564Z,3.9
2017-12-29T13:40:25.214Z,3.9
2017-12-29T13:41:27.634Z,3.8
2017-12-29T13:42:30.042Z,3.8
2017-12-29T13:43:32.513Z,3.8
2017-12-29T13:44:34.914Z,3.8
2017-12-29T13:45:37.342Z,3.9
2017-12-29T13:46:40.447Z,3.9
2017-12-29T13:47:42.859Z,3.8
2017-12-29T13:48:45.273Z,3.8
2017-12-29T13:49:47.689Z,3.7
2017-12-29T13:50:50.101Z,3.7
2017-12-29T13:51:52.529Z,3.7
2017-12-29T13:52:54.930Z,3.7
2017-12-29T13:53:57.336Z,3.7
2017-12-29T13:54:59.806Z,3.8
2017-12-29T13:56:02.499Z,3.7
2017-12-29T13:57:05.206Z,3.7
2017-12-29T13:58:07.901Z,3.7
2017-12-29T13:59:10.313Z,3.7
2017-12-29T14:00:12.733Z,3.7
2017-12-29T14:01:15.151Z,3.7
2017-12-29T14:02:17.553Z,3.6
2017-12-29T14:03:19.966Z,3.7
2017-12-29T14:04:22.395Z,3.7
2017-12-29T14:05:24.806Z,3.6
2017-12-29T14:06:27.222Z,3.6
2017-12-29T14:07:29.637Z,3.6
2017-12-29T14:08:32.062Z,3.6
2017-12-29T14:09:34.470Z,3.6
2017-12-29T14:10:36.884Z,3.6
2017-12-29T14:11:39.302Z,3.6
2017-12-29T14:12:42.444Z,3.6
2017-12-29T14:13:44.854Z,3.5
2017-12-29T14:14:47.260Z,3.5
2017-12-29T14:15:49.960Z,3.5
2017-12-29T14:16:52.366Z,3.5
2017-12-29T14:17:54.772Z,3.4
2017-12-29T14:18:57.188Z,3.4
2017-12-29T14:19:59.892Z,3.4
2017-12-29T14:21:02.308Z,3.4
2017-12-29T14:22:04.721Z,3.4
2017-12-29T14:23:07.412Z,3.3
2017-12-29T14:24:09.836Z,3.3